sensor_id;sensor_type;location;lat;lon;timestamp;pressure;altitude;pressure_sealevel;temperature;humidity
60427;BME280;46274;47.168;27.604;2023-07-24T00:01:08;99762.28;;;18.46;74.48
60427;BME280;46274;47.168;27.604;2023-07-24T00:07:47;99727.53;;;18.40;74.19
60427;BME280;46274;47.168;27.604;2023-07-24T00:15:03;99412.16;;;16.87;71.66
60427;BME280;46274;47.168;27.604;2023-07-24T00:28:54;99454.41;;;16.42;76.78
60427;BME280;46274;47.168;27.604;2023-07-24T00:42:53;99819.56;;;17.94;83.92
60427;BME280;46274;47.168;27.604;2023-07-24T00:57:08;99456.53;;;15.85;80.84
60427;BME280;46274;47.168;27.604;2023-07-24T01:10:52;99816.75;;;18.84;76.90
60427;BME280;46274;47.168;27.604;2023-07-24T01:17:14;99798.63;;;18.95;74.07
60427;BME280;46274;47.168;27.604;2023-07-24T01:24:03;99810.13;;;17.34;
60427;BME280;46274;47.168;27.604;2023-07-24T01:30:41;99803.59;;;17.35;88.45
60427;BME280;46274;47.168;27.604;2023-07-24T01:37:31;99785.13;;;17.98;81.80
60427;BME280;46274;47.168;27.604;2023-07-24T01:44:21;99802.56;;;18.34;79.77
60427;BME280;46274;47.168;27.604;2023-07-24T01:51:00;99806.78;;;18.71;77.84
60427;BME280;46274;47.168;27.604;2023-07-24T01:57:11;99804.97;;;18.95;75.31
60427;BME280;46274;47.168;27.604;2023-07-24T02:03:34;99728.41;;;18.52;74.60
60427;BME280;46274;47.168;27.604;2023-07-24T02:17:11;99808.28;;;19.09;74.23
60427;BME280;46274;47.168;27.604;2023-07-24T02:30:46;99815.00;;;18.90;73.54
60427;BME280;46274;47.168;27.604;2023-07-24T02:37:22;99769.47;;;18.70;73.21
60427;BME280;46274;47.168;27.604;2023-07-24T02:43:51;99623.75;;;17.90;71.92
60427;BME280;46274;47.168;27.604;2023-07-24T02:50:24;99804.66;;;18.62;74.44
60427;BME280;46274;47.168;27.604;2023-07-24T02:56:58;99813.97;;;18.72;74.00
60427;BME280;46274;47.168;27.604;2023-07-24T03:03:23;99811.75;;;18.81;72.84
60427;BME280;46274;47.168;27.604;2023-07-24T03:09:43;99799.50;;;18.53;75.22
60427;BME280;46274;47.168;27.604;2023-07-24T03:16:16;99818.66;;;18.84;72.65
60427;BME280;46274;47.168;27.604;2023-07-24T03:23:12;99673.84;;;18.08;71.74
60427;BME280;46274;47.168;27.604;2023-07-24T03:29:57;99637.50;;;17.71;71.99
60427;BME280;46274;47.168;27.604;2023-07-24T03:36:32;99816.06;;;18.47;75.00
60427;BME280;46274;47.168;27.604;2023-07-24T03:43:05;99808.66;;;18.78;72.97
60427;BME280;46274;47.168;27.604;2023-07-24T03:55:57;99782.44;;;18.63;74.20
60427;BME280;46274;47.168;27.604;2023-07-24T04:02:03;99772.00;;;19.07;72.56
60427;BME280;46274;47.168;27.604;2023-07-24T04:08:11;99810.72;;;19.81;71.45
60427;BME280;46274;47.168;27.604;2023-07-24T04:14:18;99724.97;;;18.92;70.90
60427;BME280;46274;47.168;27.604;2023-07-24T04:20:20;99807.25;;;20.43;68.92
60427;BME280;46274;47.168;27.604;2023-07-24T04:26:23;99810.41;;;19.78;69.60
60427;BME280;46274;47.168;27.604;2023-07-24T04:32:38;99805.91;;;20.29;67.84
60427;BME280;46274;47.168;27.604;2023-07-24T04:38:43;99808.91;;;20.44;67.83
60427;BME280;46274;47.168;27.604;2023-07-24T04:44:53;99766.47;;;21.08;65.18
60427;BME280;46274;47.168;27.604;2023-07-24T04:50:58;99777.31;;;21.53;66.00
60427;BME280;46274;47.168;27.604;2023-07-24T04:57:06;99740.66;;;21.53;63.85
60427;BME280;46274;47.168;27.604;2023-07-24T05:03:11;99657.63;;;21.27;61.26
60427;BME280;46274;47.168;27.604;2023-07-24T05:09:14;99792.97;;;22.41;58.90
60427;BME280;46274;47.168;27.604;2023-07-24T05:15:16;99787.03;;;22.05;59.55
60427;BME280;46274;47.168;27.604;2023-07-24T05:21:23;99762.81;;;21.85;61.12
60427;BME280;46274;47.168;27.604;2023-07-24T05:27:27;99791.28;;;22.40;60.23
60427;BME280;46274;47.168;27.604;2023-07-24T05:33:35;99806.72;;;22.36;60.08
60427;BME280;46274;47.168;27.604;2023-07-24T05:39:44;99787.44;;;23.05;59.93
60427;BME280;46274;47.168;27.604;2023-07-24T05:45:49;99782.06;;;23.26;57.05
60427;BME280;46274;47.168;27.604;2023-07-24T05:51:53;99688.94;;;22.89;56.35
60427;BME280;46274;47.168;27.604;2023-07-24T05:58:04;99759.25;;;24.45;54.39
60427;BME280;46274;47.168;27.604;2023-07-24T06:04:10;99732.91;;;24.16;54.48
60427;BME280;46274;47.168;27.604;2023-07-24T06:10:22;99772.25;;;24.75;53.27
60427;BME280;46274;47.168;27.604;2023-07-24T06:16:32;99737.31;;;25.10;52.88
60427;BME280;46274;47.168;27.604;2023-07-24T06:22:35;99696.06;;;24.83;51.44
60427;BME280;46274;47.168;27.604;2023-07-24T06:28:37;99673.06;;;24.82;53.36
60427;BME280;46274;47.168;27.604;2023-07-24T06:34:41;99686.81;;;25.88;51.55
60427;BME280;46274;47.168;27.604;2023-07-24T06:40:44;99692.72;;;26.16;50.83
60427;BME280;46274;47.168;27.604;2023-07-24T06:46:47;99730.56;;;26.80;49.02
60427;BME280;46274;47.168;27.604;2023-07-24T06:52:56;99731.63;;;26.50;49.48
60427;BME280;46274;47.168;27.604;2023-07-24T06:58:59;99721.09;;;26.52;48.62
60427;BME280;46274;47.168;27.604;2023-07-24T07:05:02;99618.88;;;26.15;50.22
60427;BME280;46274;47.168;27.604;2023-07-24T07:11:10;99716.59;;;27.38;49.01
60427;BME280;46274;47.168;27.604;2023-07-24T07:17:15;99687.09;;;27.18;47.59
60427;BME280;46274;47.168;27.604;2023-07-24T07:23:21;99670.38;;;27.86;46.46
60427;BME280;46274;47.168;27.604;2023-07-24T07:29:27;99701.41;;;27.93;46.44
60427;BME280;46274;47.168;27.604;2023-07-24T07:35:52;99673.34;;;27.27;44.73
60427;BME280;46274;47.168;27.604;2023-07-24T07:42:05;99687.66;;;28.01;45.94
60427;BME280;46274;47.168;27.604;2023-07-24T07:48:18;99650.53;;;28.06;45.25
60427;BME280;46274;47.168;27.604;2023-07-24T07:54:31;99678.66;;;28.23;42.47
60427;BME280;46274;47.168;27.604;2023-07-24T08:00:38;99676.69;;;29.03;43.49
60427;BME280;46274;47.168;27.604;2023-07-24T08:06:46;99657.03;;;28.67;43.23
60427;BME280;46274;47.168;27.604;2023-07-24T08:12:50;99673.84;;;28.62;41.95
60427;BME280;46274;47.168;27.604;2023-07-24T08:19:18;99615.53;;;28.00;42.68
60427;BME280;46274;47.168;27.604;2023-07-24T08:25:52;99505.31;;;28.26;41.92
60427;BME280;46274;47.168;27.604;2023-07-24T08:32:30;99658.78;;;29.09;38.34
60427;BME280;46274;47.168;27.604;2023-07-24T08:38:35;99661.22;;;30.03;41.21
60427;BME280;46274;47.168;27.604;2023-07-24T08:44:46;99652.19;;;30.28;40.55
60427;BME280;46274;47.168;27.604;2023-07-24T08:50:54;99361.03;;;28.65;38.69
60427;BME280;46274;47.168;27.604;2023-07-24T08:57:13;99637.22;;;30.47;37.38
60427;BME280;46274;47.168;27.604;2023-07-24T09:03:19;99572.03;;;30.15;38.99
60427;BME280;46274;47.168;27.604;2023-07-24T09:09:29;99637.25;;;30.86;36.30
60427;BME280;46274;47.168;27.604;2023-07-24T09:15:42;99626.59;;;30.97;36.71
60427;BME280;46274;47.168;27.604;2023-07-24T09:21:48;99597.19;;;29.70;35.76
60427;BME280;46274;47.168;27.604;2023-07-24T09:27:51;99609.59;;;30.54;35.11
60427;BME280;46274;47.168;27.604;2023-07-24T09:33:54;99596.22;;;30.73;36.68
60427;BME280;46274;47.168;27.604;2023-07-24T09:40:03;99398.63;;;28.67;36.88
60427;BME280;46274;47.168;27.604;2023-07-24T09:46:05;99332.31;;;29.77;37.72
60427;BME280;46274;47.168;27.604;2023-07-24T09:52:12;99592.88;;;31.86;36.91
60427;BME280;46274;47.168;27.604;2023-07-24T09:58:23;99496.72;;;29.56;35.55
60427;BME280;46274;47.168;27.604;2023-07-24T10:04:32;99436.03;;;30.81;37.07
60427;BME280;46274;47.168;27.604;2023-07-24T10:10:38;99566.81;;;31.77;36.69
60427;BME280;46274;47.168;27.604;2023-07-24T10:16:44;99551.66;;;31.78;33.16
60427;BME280;46274;47.168;27.604;2023-07-24T10:30:35;99274.44;;;30.43;32.69
60427;BME280;46274;47.168;27.604;2023-07-24T10:36:40;99486.09;;;31.61;33.47
60427;BME280;46274;47.168;27.604;2023-07-24T10:43:00;99504.25;;;31.38;33.94
60427;BME280;46274;47.168;27.604;2023-07-24T10:49:31;99385.69;;;31.16;34.41
60427;BME280;46274;47.168;27.604;2023-07-24T11:02:47;99483.47;;;31.65;31.52
60427;BME280;46274;47.168;27.604;2023-07-24T11:08:57;99490.53;;;31.88;33.20
60427;BME280;46274;47.168;27.604;2023-07-24T11:15:30;99480.91;;;32.15;33.23
60427;BME280;46274;47.168;27.604;2023-07-24T11:22:10;99470.00;;;32.23;34.21
60427;BME280;46274;47.168;27.604;2023-07-24T11:29:11;99455.88;;;32.49;31.56
60427;BME280;46274;47.168;27.604;2023-07-24T11:35:33;99414.19;;;32.38;33.15
60427;BME280;46274;47.168;27.604;2023-07-24T11:42:00;99462.31;;;32.79;33.76
60427;BME280;46274;47.168;27.604;2023-07-24T11:48:11;99455.31;;;32.85;31.43
60427;BME280;46274;47.168;27.604;2023-07-24T11:54:33;99307.66;;;32.09;30.62
60427;BME280;46274;47.168;27.604;2023-07-24T12:00:59;99411.63;;;33.05;31.95
60427;BME280;46274;47.168;27.604;2023-07-24T12:07:50;99386.88;;;32.98;31.97
60427;BME280;46274;47.168;27.604;2023-07-24T12:14:10;99414.16;;;33.19;32.31
60427;BME280;46274;47.168;27.604;2023-07-24T12:20:19;99413.72;;;33.29;32.01
60427;BME280;46274;47.168;27.604;2023-07-24T12:26:38;99396.72;;;33.47;30.89
60427;BME280;46274;47.168;27.604;2023-07-24T12:33:04;99099.88;;;31.26;31.25
60427;BME280;46274;47.168;27.604;2023-07-24T12:46:05;99362.94;;;32.80;30.62
60427;BME280;46274;47.168;27.604;2023-07-24T12:52:20;99347.50;;;33.28;31.59
60427;BME280;46274;47.168;27.604;2023-07-24T12:58:32;99355.72;;;33.45;32.42
60427;BME280;46274;47.168;27.604;2023-07-24T13:04:57;99025.69;;;30.91;29.45
60427;BME280;46274;47.168;27.604;2023-07-24T13:19:01;99349.06;;;33.05;32.41
60427;BME280;46274;47.168;27.604;2023-07-24T13:25:26;99335.66;;;33.10;32.29
60427;BME280;46274;47.168;27.604;2023-07-24T13:38:50;99211.22;;;31.80;31.55
60427;BME280;46274;47.168;27.604;2023-07-24T13:45:11;99341.03;;;32.73;31.14
60427;BME280;46274;47.168;27.604;2023-07-24T13:51:48;99317.84;;;32.43;30.52
60427;BME280;46274;47.168;27.604;2023-07-24T13:58:44;99069.56;;;31.28;31.77
60427;BME280;46274;47.168;27.604;2023-07-24T14:11:54;99178.50;;;32.02;32.14
60427;BME280;46274;47.168;27.604;2023-07-24T14:18:08;99239.88;;;32.57;31.84
60427;BME280;46274;47.168;27.604;2023-07-24T14:24:36;99286.28;;;32.88;31.80
60427;BME280;46274;47.168;27.604;2023-07-24T14:30:59;99273.22;;;32.92;31.71
60427;BME280;46274;47.168;27.604;2023-07-24T14:44:42;98945.69;;;30.69;32.28
60427;BME280;46274;47.168;27.604;2023-07-24T14:51:23;99113.69;;;32.03;31.22
60427;BME280;46274;47.168;27.604;2023-07-24T14:57:33;99165.16;;;32.20;31.93
60427;BME280;46274;47.168;27.604;2023-07-24T15:03:36;99257.31;;;32.84;31.69
60427;BME280;46274;47.168;27.604;2023-07-24T15:09:42;99261.81;;;32.34;31.99
60427;BME280;46274;47.168;27.604;2023-07-24T15:15:48;99249.38;;;32.44;31.94
60427;BME280;46274;47.168;27.604;2023-07-24T15:22:10;99223.19;;;31.68;31.78
60427;BME280;46274;47.168;27.604;2023-07-24T15:28:50;99246.09;;;32.42;31.56
60427;BME280;46274;47.168;27.604;2023-07-24T15:35:17;99178.91;;;31.83;32.70
60427;BME280;46274;47.168;27.604;2023-07-24T15:41:28;99229.06;;;31.76;32.16
60427;BME280;46274;47.168;27.604;2023-07-24T15:47:32;99221.63;;;32.30;33.45
60427;BME280;46274;47.168;27.604;2023-07-24T15:53:37;99004.44;;;30.98;34.09
60427;BME280;46274;47.168;27.604;2023-07-24T15:59:50;99179.41;;;31.93;34.63
60427;BME280;46274;47.168;27.604;2023-07-24T16:05:53;99184.25;;;31.76;35.94
60427;BME280;46274;47.168;27.604;2023-07-24T16:11:57;99179.91;;;31.57;36.52
60427;BME280;46274;47.168;27.604;2023-07-24T16:18:01;99218.44;;;31.90;36.53
60427;BME280;46274;47.168;27.604;2023-07-24T16:24:09;99183.97;;;31.39;38.24
60427;BME280;46274;47.168;27.604;2023-07-24T16:30:19;99204.94;;;31.15;38.50
60427;BME280;46274;47.168;27.604;2023-07-24T16:36:59;99019.78;;;29.72;39.45
60427;BME280;46274;47.168;27.604;2023-07-24T16:43:34;99149.34;;;30.23;39.96
60427;BME280;46274;47.168;27.604;2023-07-24T16:49:49;99092.34;;;29.89;39.93
60427;BME280;46274;47.168;27.604;2023-07-24T16:56:12;99181.25;;;30.31;39.15
60427;BME280;46274;47.168;27.604;2023-07-24T17:02:18;99191.25;;;30.06;39.69
60427;BME280;46274;47.168;27.604;2023-07-24T17:08:23;99181.22;;;30.05;39.99
60427;BME280;46274;47.168;27.604;2023-07-24T17:14:43;99130.56;;;29.54;41.25
60427;BME280;46274;47.168;27.604;2023-07-24T17:20:56;98973.28;;;28.26;42.36
60427;BME280;46274;47.168;27.604;2023-07-24T17:27:05;99149.19;;;29.27;43.73
60427;BME280;46274;47.168;27.604;2023-07-24T17:33:13;99121.19;;;29.01;43.51
60427;BME280;46274;47.168;27.604;2023-07-24T17:39:50;99034.25;;;28.28;44.01
60427;BME280;46274;47.168;27.604;2023-07-24T17:46:08;98862.84;;;27.28;44.09
60427;BME280;46274;47.168;27.604;2023-07-24T17:52:14;99114.84;;;28.24;45.68
60427;BME280;46274;47.168;27.604;2023-07-24T17:58:23;99142.19;;;28.67;44.79
60427;BME280;46274;47.168;27.604;2023-07-24T18:04:28;99122.16;;;28.65;44.65
60427;BME280;46274;47.168;27.604;2023-07-24T18:10:56;99061.56;;;28.17;44.11
60427;BME280;46274;47.168;27.604;2023-07-24T18:17:22;99168.97;;;28.77;43.94
60427;BME280;46274;47.168;27.604;2023-07-24T18:23:51;99169.38;;;27.39;49.76
60427;BME280;46274;47.168;27.604;2023-07-24T18:30:01;98958.16;;;27.06;46.14
60427;BME280;46274;47.168;27.604;2023-07-24T18:36:08;99170.19;;;28.40;45.74
60427;BME280;46274;47.168;27.604;2023-07-24T18:42:17;99182.31;;;28.21;46.01
60427;BME280;46274;47.168;27.604;2023-07-24T18:48:47;99174.91;;;27.94;45.65
60427;BME280;46274;47.168;27.604;2023-07-24T18:55:14;99181.41;;;27.90;45.67
60427;BME280;46274;47.168;27.604;2023-07-24T19:01:44;99182.16;;;27.68;47.31
60427;BME280;46274;47.168;27.604;2023-07-24T19:08:22;99193.44;;;25.37;54.45
60427;BME280;46274;47.168;27.604;2023-07-24T19:15:07;98896.81;;;23.55;54.72
60427;BME280;46274;47.168;27.604;2023-07-24T19:21:42;99192.91;;;26.53;49.76
60427;BME280;46274;47.168;27.604;2023-07-24T19:28:10;99130.81;;;23.35;60.08
60427;BME280;46274;47.168;27.604;2023-07-24T19:34:15;99083.56;;;24.74;54.56
60427;BME280;46274;47.168;27.604;2023-07-24T19:40:24;99151.22;;;24.33;56.70
60427;BME280;46274;47.168;27.604;2023-07-24T19:46:34;99136.47;;;24.09;57.89
60427;BME280;46274;47.168;27.604;2023-07-24T19:52:39;99169.78;;;23.34;62.29
60427;BME280;46274;47.168;27.604;2023-07-24T19:58:42;98996.41;;;22.30;62.52
60427;BME280;46274;47.168;27.604;2023-07-24T20:04:52;99119.47;;;22.51;64.62
60427;BME280;46274;47.168;27.604;2023-07-24T20:11:10;98960.63;;;21.53;64.27
60427;BME280;46274;47.168;27.604;2023-07-24T20:17:25;99120.81;;;22.64;63.88
60427;BME280;46274;47.168;27.604;2023-07-24T20:23:42;99125.50;;;23.99;58.78
60427;BME280;46274;47.168;27.604;2023-07-24T20:30:16;99130.28;;;23.28;62.98
60427;BME280;46274;47.168;27.604;2023-07-24T20:36:34;99122.22;;;23.91;60.18
60427;BME280;46274;47.168;27.604;2023-07-24T20:42:41;99122.50;;;22.50;64.97
60427;BME280;46274;47.168;27.604;2023-07-24T20:48:49;99104.91;;;23.21;61.18
60427;BME280;46274;47.168;27.604;2023-07-24T20:55:06;99124.91;;;22.77;63.57
60427;BME280;46274;47.168;27.604;2023-07-24T21:01:15;99104.56;;;23.82;59.02
60427;BME280;46274;47.168;27.604;2023-07-24T21:07:48;99052.44;;;21.99;64.90
60427;BME280;46274;47.168;27.604;2023-07-24T21:13:59;99109.53;;;23.30;61.60
60427;BME280;46274;47.168;27.604;2023-07-24T21:20:11;99063.38;;;22.66;62.55
60427;BME280;46274;47.168;27.604;2023-07-24T21:26:41;99025.13;;;21.83;65.82
60427;BME280;46274;47.168;27.604;2023-07-24T21:32:49;99085.78;;;22.18;67.17
60427;BME280;46274;47.168;27.604;2023-07-24T21:39:23;98929.72;;;21.35;65.83
60427;BME280;46274;47.168;27.604;2023-07-24T21:45:56;99053.75;;;22.48;63.08
60427;BME280;46274;47.168;27.604;2023-07-24T21:52:26;98971.09;;;21.87;63.90
60427;BME280;46274;47.168;27.604;2023-07-24T21:58:35;99066.47;;;22.08;64.19
60427;BME280;46274;47.168;27.604;2023-07-24T22:05:14;99078.22;;;22.91;60.78
60427;BME280;46274;47.168;27.604;2023-07-24T22:11:31;99078.06;;;21.85;64.00
60427;BME280;46274;47.168;27.604;2023-07-24T22:17:49;99045.81;;;21.90;64.62
60427;BME280;46274;47.168;27.604;2023-07-24T22:23:53;99057.88;;;22.46;61.30
60427;BME280;46274;47.168;27.604;2023-07-24T22:30:04;98931.91;;;21.18;66.73
60427;BME280;46274;47.168;27.604;2023-07-24T22:36:25;99027.19;;;21.09;70.34
60427;BME280;46274;47.168;27.604;2023-07-24T22:42:27;99072.75;;;21.42;67.33
60427;BME280;46274;47.168;27.604;2023-07-24T22:48:41;98862.44;;;20.55;63.71
60427;BME280;46274;47.168;27.604;2023-07-24T22:55:08;99019.03;;;22.06;60.84
60427;BME280;46274;47.168;27.604;2023-07-24T23:01:43;99031.69;;;22.43;59.19
60427;BME280;46274;47.168;27.604;2023-07-24T23:07:47;99004.88;;;22.59;56.80
60427;BME280;46274;47.168;27.604;2023-07-24T23:13:59;99028.19;;;22.92;56.70
60427;BME280;46274;47.168;27.604;2023-07-24T23:20:25;98849.28;;;21.59;58.15
60427;BME280;46274;47.168;27.604;2023-07-24T23:26:29;98995.03;;;21.30;65.34
60427;BME280;46274;47.168;27.604;2023-07-24T23:32:35;99018.38;;;21.02;66.62
60427;BME280;46274;47.168;27.604;2023-07-24T23:38:44;98985.78;;;20.68;68.08
60427;BME280;46274;47.168;27.604;2023-07-24T23:45:01;98969.19;;;20.53;69.40
60427;BME280;46274;47.168;27.604;2023-07-24T23:51:21;98981.19;;;20.36;69.90
60427;BME280;46274;47.168;27.604;2023-07-24T23:57:37;99000.31;;;21.67;63.58
